aviador You're here:

KTOL Decoded Metar

TOLEDO in OH, USA
Report Time2017-08-19 13:52:00
UTC Time2017-08-19 14:55:49
Flight Rules vfr VFR
Wind280° at 06 kt
W.Decomp.*RWY 25: 4.9 kt HW 3.4 kt RCW
RWY 34: 3.4 kt HW 4.9 kt LCW
W.Rank280° ranks 9
Current wind is below 280° avg. (9.3)
Visibility9999 m
Phenomena:N/A
Clouds:N/A
Expected CloudBase > 800 ft AGL from Temp-Dew spread
CeilingNone
Temp20°C (ISA +6)
Dew Point18°C (88% RH)
QNH1013 hPa
Density Alt1,709 ft
Elevation689 ft
Report Wrong Elevation
Raw Report
METAR KTOL 191352Z 28006KT 10SM CLR 20/18 A2991 RMK AO2 SLP125 T02000183=

Extra information for KTOL:More info

Metar Taf Metar & Taf Last 4 Metars F.Rules Stats Wind Profile Meteogram Temp Stats Airport Information Weather charts Add Link Nearby VenuesMetar ALERT Operation Metar Decoded Social comments

AIRNAV info for KTOL